sensor_id;sensor_type;location;lat;lon;timestamp;P1;durP1;ratioP1;P2;durP2;ratioP2
15946;SDS011;8072;52.554;7.966;2024-01-11T00:00:13;18.50;;;8.97;;
15946;SDS011;8072;52.554;7.966;2024-01-11T00:02:39;19.93;;;9.90;;
15946;SDS011;8072;52.554;7.966;2024-01-11T00:05:04;18.97;;;9.70;;
15946;SDS011;8072;52.554;7.966;2024-01-11T00:07:31;23.70;;;9.57;;
15946;SDS011;8072;52.554;7.966;2024-01-11T00:09:57;20.20;;;10.27;;
15946;SDS011;8072;52.554;7.966;2024-01-11T00:12:23;19.97;;;10.03;;
15946;SDS011;8072;52.554;7.966;2024-01-11T00:14:49;19.73;;;10.27;;
15946;SDS011;8072;52.554;7.966;2024-01-11T00:17:14;22.13;;;10.03;;
15946;SDS011;8072;52.554;7.966;2024-01-11T00:19:41;21.83;;;10.37;;
15946;SDS011;8072;52.554;7.966;2024-01-11T00:22:06;25.67;;;11.73;;
15946;SDS011;8072;52.554;7.966;2024-01-11T00:24:32;23.60;;;10.77;;
15946;SDS011;8072;52.554;7.966;2024-01-11T00:26:58;20.37;;;10.33;;
15946;SDS011;8072;52.554;7.966;2024-01-11T00:29:24;22.43;;;10.80;;
15946;SDS011;8072;52.554;7.966;2024-01-11T00:31:49;17.87;;;10.00;;
15946;SDS011;8072;52.554;7.966;2024-01-11T00:34:15;28.00;;;11.53;;
15946;SDS011;8072;52.554;7.966;2024-01-11T00:36:41;25.40;;;11.23;;
15946;SDS011;8072;52.554;7.966;2024-01-11T00:39:07;20.93;;;10.93;;
15946;SDS011;8072;52.554;7.966;2024-01-11T00:41:33;18.90;;;9.90;;
15946;SDS011;8072;52.554;7.966;2024-01-11T00:43:59;17.93;;;9.70;;
15946;SDS011;8072;52.554;7.966;2024-01-11T00:46:25;18.73;;;9.90;;
15946;SDS011;8072;52.554;7.966;2024-01-11T00:48:50;20.37;;;9.60;;
15946;SDS011;8072;52.554;7.966;2024-01-11T00:51:16;24.53;;;10.37;;
15946;SDS011;8072;52.554;7.966;2024-01-11T00:53:42;18.20;;;9.93;;
15946;SDS011;8072;52.554;7.966;2024-01-11T00:56:17;17.60;;;10.00;;
15946;SDS011;8072;52.554;7.966;2024-01-11T00:58:43;21.67;;;10.77;;
15946;SDS011;8072;52.554;7.966;2024-01-11T01:01:09;28.20;;;11.20;;
15946;SDS011;8072;52.554;7.966;2024-01-11T01:03:35;24.00;;;10.63;;
15946;SDS011;8072;52.554;7.966;2024-01-11T01:06:01;24.67;;;11.20;;
15946;SDS011;8072;52.554;7.966;2024-01-11T01:08:27;25.47;;;11.13;;
15946;SDS011;8072;52.554;7.966;2024-01-11T01:10:54;23.80;;;10.57;;
15946;SDS011;8072;52.554;7.966;2024-01-11T01:13:19;23.03;;;10.83;;
15946;SDS011;8072;52.554;7.966;2024-01-11T01:15:45;20.97;;;10.13;;
15946;SDS011;8072;52.554;7.966;2024-01-11T01:18:11;22.63;;;10.77;;
15946;SDS011;8072;52.554;7.966;2024-01-11T01:20:37;21.77;;;10.87;;
15946;SDS011;8072;52.554;7.966;2024-01-11T01:23:03;23.50;;;11.30;;
15946;SDS011;8072;52.554;7.966;2024-01-11T01:25:28;24.77;;;11.83;;
15946;SDS011;8072;52.554;7.966;2024-01-11T01:27:54;25.43;;;12.07;;
15946;SDS011;8072;52.554;7.966;2024-01-11T01:30:20;27.37;;;11.30;;
15946;SDS011;8072;52.554;7.966;2024-01-11T01:32:46;25.00;;;10.70;;
15946;SDS011;8072;52.554;7.966;2024-01-11T01:35:12;24.03;;;10.77;;
15946;SDS011;8072;52.554;7.966;2024-01-11T01:37:38;26.40;;;11.47;;
15946;SDS011;8072;52.554;7.966;2024-01-11T01:40:04;24.30;;;11.63;;
15946;SDS011;8072;52.554;7.966;2024-01-11T01:42:30;21.17;;;10.80;;
15946;SDS011;8072;52.554;7.966;2024-01-11T01:44:56;24.90;;;11.07;;
15946;SDS011;8072;52.554;7.966;2024-01-11T01:47:22;23.83;;;11.30;;
15946;SDS011;8072;52.554;7.966;2024-01-11T01:49:48;24.10;;;10.73;;
15946;SDS011;8072;52.554;7.966;2024-01-11T01:52:14;18.33;;;10.17;;
15946;SDS011;8072;52.554;7.966;2024-01-11T01:54:42;21.87;;;11.40;;
15946;SDS011;8072;52.554;7.966;2024-01-11T01:57:08;21.50;;;10.83;;
15946;SDS011;8072;52.554;7.966;2024-01-11T01:59:36;25.07;;;11.37;;
15946;SDS011;8072;52.554;7.966;2024-01-11T02:02:03;22.93;;;11.10;;
15946;SDS011;8072;52.554;7.966;2024-01-11T02:04:30;23.80;;;11.50;;
15946;SDS011;8072;52.554;7.966;2024-01-11T02:06:56;21.37;;;10.60;;
15946;SDS011;8072;52.554;7.966;2024-01-11T02:09:23;27.60;;;11.47;;
15946;SDS011;8072;52.554;7.966;2024-01-11T02:11:51;24.80;;;12.30;;
15946;SDS011;8072;52.554;7.966;2024-01-11T02:14:19;26.37;;;11.80;;
15946;SDS011;8072;52.554;7.966;2024-01-11T02:16:45;22.80;;;10.30;;
15946;SDS011;8072;52.554;7.966;2024-01-11T02:19:12;25.67;;;11.30;;
15946;SDS011;8072;52.554;7.966;2024-01-11T02:21:40;22.50;;;11.13;;
15946;SDS011;8072;52.554;7.966;2024-01-11T02:24:08;24.10;;;11.63;;
15946;SDS011;8072;52.554;7.966;2024-01-11T02:26:35;26.90;;;11.40;;
15946;SDS011;8072;52.554;7.966;2024-01-11T02:29:01;26.53;;;11.23;;
15946;SDS011;8072;52.554;7.966;2024-01-11T02:31:29;30.33;;;11.50;;
15946;SDS011;8072;52.554;7.966;2024-01-11T02:33:56;22.57;;;10.93;;
15946;SDS011;8072;52.554;7.966;2024-01-11T02:36:22;21.67;;;10.87;;
15946;SDS011;8072;52.554;7.966;2024-01-11T02:38:48;19.47;;;10.40;;
15946;SDS011;8072;52.554;7.966;2024-01-11T02:41:16;21.63;;;11.23;;
15946;SDS011;8072;52.554;7.966;2024-01-11T02:43:46;21.00;;;10.23;;
15946;SDS011;8072;52.554;7.966;2024-01-11T02:46:13;23.27;;;11.10;;
15946;SDS011;8072;52.554;7.966;2024-01-11T02:48:40;28.80;;;12.93;;
15946;SDS011;8072;52.554;7.966;2024-01-11T02:51:06;23.53;;;11.50;;
15946;SDS011;8072;52.554;7.966;2024-01-11T02:53:32;20.63;;;10.77;;
15946;SDS011;8072;52.554;7.966;2024-01-11T02:55:59;21.40;;;11.50;;
15946;SDS011;8072;52.554;7.966;2024-01-11T02:58:26;22.40;;;12.13;;
15946;SDS011;8072;52.554;7.966;2024-01-11T03:00:52;21.47;;;11.23;;
15946;SDS011;8072;52.554;7.966;2024-01-11T03:03:18;22.87;;;11.93;;
15946;SDS011;8072;52.554;7.966;2024-01-11T03:05:44;21.87;;;10.97;;
15946;SDS011;8072;52.554;7.966;2024-01-11T03:08:11;22.20;;;11.50;;
15946;SDS011;8072;52.554;7.966;2024-01-11T03:10:39;27.27;;;11.77;;
15946;SDS011;8072;52.554;7.966;2024-01-11T03:13:05;21.20;;;10.90;;
15946;SDS011;8072;52.554;7.966;2024-01-11T03:15:32;21.03;;;10.93;;
15946;SDS011;8072;52.554;7.966;2024-01-11T03:17:58;23.63;;;11.23;;
15946;SDS011;8072;52.554;7.966;2024-01-11T03:20:24;21.93;;;11.07;;
15946;SDS011;8072;52.554;7.966;2024-01-11T03:22:51;25.63;;;11.30;;
15946;SDS011;8072;52.554;7.966;2024-01-11T03:25:19;21.47;;;10.80;;
15946;SDS011;8072;52.554;7.966;2024-01-11T03:27:46;26.60;;;11.80;;
15946;SDS011;8072;52.554;7.966;2024-01-11T03:30:13;24.53;;;11.87;;
15946;SDS011;8072;52.554;7.966;2024-01-11T03:32:39;25.23;;;12.50;;
15946;SDS011;8072;52.554;7.966;2024-01-11T03:35:08;25.27;;;11.77;;
15946;SDS011;8072;52.554;7.966;2024-01-11T03:37:35;22.47;;;11.37;;
15946;SDS011;8072;52.554;7.966;2024-01-11T03:40:02;26.13;;;11.30;;
15946;SDS011;8072;52.554;7.966;2024-01-11T03:42:28;24.93;;;11.70;;
15946;SDS011;8072;52.554;7.966;2024-01-11T03:44:54;24.47;;;11.20;;
15946;SDS011;8072;52.554;7.966;2024-01-11T03:47:20;22.23;;;10.23;;
15946;SDS011;8072;52.554;7.966;2024-01-11T03:49:46;23.33;;;10.93;;
15946;SDS011;8072;52.554;7.966;2024-01-11T03:52:13;20.47;;;11.27;;
15946;SDS011;8072;52.554;7.966;2024-01-11T03:54:39;23.20;;;11.47;;
15946;SDS011;8072;52.554;7.966;2024-01-11T03:57:04;21.07;;;10.20;;
15946;SDS011;8072;52.554;7.966;2024-01-11T03:59:31;21.20;;;11.23;;
15946;SDS011;8072;52.554;7.966;2024-01-11T04:01:57;21.10;;;11.43;;
15946;SDS011;8072;52.554;7.966;2024-01-11T04:04:24;25.57;;;11.53;;
15946;SDS011;8072;52.554;7.966;2024-01-11T04:06:50;23.90;;;11.60;;
15946;SDS011;8072;52.554;7.966;2024-01-11T04:09:19;21.63;;;10.60;;
15946;SDS011;8072;52.554;7.966;2024-01-11T04:11:47;21.30;;;10.70;;
15946;SDS011;8072;52.554;7.966;2024-01-11T04:14:13;22.57;;;11.10;;
15946;SDS011;8072;52.554;7.966;2024-01-11T04:16:41;23.23;;;11.37;;
15946;SDS011;8072;52.554;7.966;2024-01-11T04:19:09;24.30;;;11.97;;
15946;SDS011;8072;52.554;7.966;2024-01-11T04:21:37;21.87;;;10.77;;
15946;SDS011;8072;52.554;7.966;2024-01-11T04:24:05;24.87;;;11.50;;
15946;SDS011;8072;52.554;7.966;2024-01-11T04:26:32;23.13;;;11.40;;
15946;SDS011;8072;52.554;7.966;2024-01-11T04:28:57;25.87;;;11.60;;
15946;SDS011;8072;52.554;7.966;2024-01-11T04:31:25;27.60;;;12.07;;
15946;SDS011;8072;52.554;7.966;2024-01-11T04:33:56;26.50;;;12.43;;
15946;SDS011;8072;52.554;7.966;2024-01-11T04:36:23;28.17;;;12.20;;
15946;SDS011;8072;52.554;7.966;2024-01-11T04:38:49;26.30;;;11.20;;
15946;SDS011;8072;52.554;7.966;2024-01-11T04:41:15;26.33;;;12.70;;
15946;SDS011;8072;52.554;7.966;2024-01-11T04:43:42;27.83;;;13.37;;
15946;SDS011;8072;52.554;7.966;2024-01-11T04:46:19;26.43;;;12.43;;
15946;SDS011;8072;52.554;7.966;2024-01-11T04:48:47;24.20;;;11.17;;
15946;SDS011;8072;52.554;7.966;2024-01-11T04:51:14;21.87;;;11.47;;
15946;SDS011;8072;52.554;7.966;2024-01-11T04:53:41;26.23;;;11.33;;
15946;SDS011;8072;52.554;7.966;2024-01-11T04:56:12;27.03;;;13.20;;
15946;SDS011;8072;52.554;7.966;2024-01-11T04:58:40;30.20;;;13.13;;
15946;SDS011;8072;52.554;7.966;2024-01-11T05:01:07;23.57;;;12.10;;
15946;SDS011;8072;52.554;7.966;2024-01-11T05:03:42;26.03;;;12.60;;
15946;SDS011;8072;52.554;7.966;2024-01-11T05:06:14;29.37;;;12.40;;
15946;SDS011;8072;52.554;7.966;2024-01-11T05:08:44;24.93;;;12.13;;
15946;SDS011;8072;52.554;7.966;2024-01-11T05:13:42;26.33;;;13.07;;
15946;SDS011;8072;52.554;7.966;2024-01-11T05:16:16;21.60;;;10.63;;
15946;SDS011;8072;52.554;7.966;2024-01-11T05:18:45;21.70;;;11.40;;
15946;SDS011;8072;52.554;7.966;2024-01-11T05:21:11;22.93;;;11.87;;
15946;SDS011;8072;52.554;7.966;2024-01-11T05:23:37;25.27;;;11.53;;
15946;SDS011;8072;52.554;7.966;2024-01-11T05:26:03;26.90;;;11.83;;
15946;SDS011;8072;52.554;7.966;2024-01-11T05:28:29;25.83;;;12.00;;
15946;SDS011;8072;52.554;7.966;2024-01-11T05:30:54;26.53;;;11.50;;
15946;SDS011;8072;52.554;7.966;2024-01-11T05:33:20;28.30;;;11.77;;
15946;SDS011;8072;52.554;7.966;2024-01-11T05:35:46;27.60;;;12.10;;
15946;SDS011;8072;52.554;7.966;2024-01-11T05:38:12;23.70;;;11.43;;
15946;SDS011;8072;52.554;7.966;2024-01-11T05:40:37;28.10;;;12.53;;
15946;SDS011;8072;52.554;7.966;2024-01-11T05:43:03;24.03;;;12.17;;
15946;SDS011;8072;52.554;7.966;2024-01-11T05:45:29;30.53;;;13.90;;
15946;SDS011;8072;52.554;7.966;2024-01-11T05:47:55;26.53;;;13.07;;
15946;SDS011;8072;52.554;7.966;2024-01-11T05:50:20;31.93;;;13.63;;
15946;SDS011;8072;52.554;7.966;2024-01-11T05:52:46;24.77;;;11.63;;
15946;SDS011;8072;52.554;7.966;2024-01-11T05:55:12;27.73;;;13.67;;
15946;SDS011;8072;52.554;7.966;2024-01-11T05:57:37;29.30;;;13.13;;
15946;SDS011;8072;52.554;7.966;2024-01-11T06:00:04;26.03;;;12.87;;
15946;SDS011;8072;52.554;7.966;2024-01-11T06:02:30;27.77;;;13.30;;
15946;SDS011;8072;52.554;7.966;2024-01-11T06:04:56;27.80;;;13.47;;
15946;SDS011;8072;52.554;7.966;2024-01-11T06:07:22;29.03;;;13.63;;
15946;SDS011;8072;52.554;7.966;2024-01-11T06:09:48;25.63;;;12.27;;
15946;SDS011;8072;52.554;7.966;2024-01-11T06:12:14;24.83;;;12.80;;
15946;SDS011;8072;52.554;7.966;2024-01-11T06:14:40;34.13;;;15.17;;
15946;SDS011;8072;52.554;7.966;2024-01-11T06:17:06;30.80;;;14.17;;
15946;SDS011;8072;52.554;7.966;2024-01-11T06:19:32;31.33;;;14.40;;
15946;SDS011;8072;52.554;7.966;2024-01-11T06:21:57;31.63;;;12.83;;
15946;SDS011;8072;52.554;7.966;2024-01-11T06:24:23;33.70;;;13.57;;
15946;SDS011;8072;52.554;7.966;2024-01-11T06:26:49;31.00;;;13.77;;
15946;SDS011;8072;52.554;7.966;2024-01-11T06:29:15;33.37;;;14.73;;
15946;SDS011;8072;52.554;7.966;2024-01-11T06:31:40;30.97;;;14.50;;
15946;SDS011;8072;52.554;7.966;2024-01-11T06:34:06;25.77;;;12.43;;
15946;SDS011;8072;52.554;7.966;2024-01-11T06:36:32;30.13;;;13.63;;
15946;SDS011;8072;52.554;7.966;2024-01-11T06:38:58;29.80;;;13.77;;
15946;SDS011;8072;52.554;7.966;2024-01-11T06:41:23;27.00;;;13.27;;
15946;SDS011;8072;52.554;7.966;2024-01-11T06:43:49;28.97;;;14.37;;
15946;SDS011;8072;52.554;7.966;2024-01-11T06:46:19;26.07;;;13.97;;
15946;SDS011;8072;52.554;7.966;2024-01-11T06:48:46;32.17;;;14.83;;
15946;SDS011;8072;52.554;7.966;2024-01-11T06:51:16;25.53;;;12.50;;
15946;SDS011;8072;52.554;7.966;2024-01-11T06:53:45;28.60;;;13.27;;
15946;SDS011;8072;52.554;7.966;2024-01-11T06:56:15;31.07;;;13.80;;
15946;SDS011;8072;52.554;7.966;2024-01-11T06:58:41;30.73;;;13.87;;
15946;SDS011;8072;52.554;7.966;2024-01-11T07:01:08;33.87;;;13.80;;
15946;SDS011;8072;52.554;7.966;2024-01-11T07:03:34;33.77;;;14.37;;
15946;SDS011;8072;52.554;7.966;2024-01-11T07:05:59;34.93;;;14.50;;
15946;SDS011;8072;52.554;7.966;2024-01-11T07:08:25;28.83;;;13.23;;
15946;SDS011;8072;52.554;7.966;2024-01-11T07:10:51;25.67;;;13.40;;
15946;SDS011;8072;52.554;7.966;2024-01-11T07:13:16;27.17;;;14.30;;
15946;SDS011;8072;52.554;7.966;2024-01-11T07:15:42;27.63;;;13.93;;
15946;SDS011;8072;52.554;7.966;2024-01-11T07:18:08;35.53;;;17.30;;
15946;SDS011;8072;52.554;7.966;2024-01-11T07:20:34;44.90;;;19.17;;
15946;SDS011;8072;52.554;7.966;2024-01-11T07:23:00;38.63;;;17.53;;
15946;SDS011;8072;52.554;7.966;2024-01-11T07:25:26;38.00;;;16.93;;
15946;SDS011;8072;52.554;7.966;2024-01-11T07:27:51;36.77;;;14.73;;
15946;SDS011;8072;52.554;7.966;2024-01-11T07:30:17;35.60;;;14.97;;
15946;SDS011;8072;52.554;7.966;2024-01-11T07:32:43;40.53;;;16.67;;
15946;SDS011;8072;52.554;7.966;2024-01-11T07:35:09;35.77;;;15.97;;
15946;SDS011;8072;52.554;7.966;2024-01-11T07:37:38;38.83;;;16.07;;
15946;SDS011;8072;52.554;7.966;2024-01-11T07:40:05;32.33;;;14.87;;
15946;SDS011;8072;52.554;7.966;2024-01-11T07:42:39;40.30;;;17.63;;
15946;SDS011;8072;52.554;7.966;2024-01-11T07:45:09;36.93;;;15.07;;
15946;SDS011;8072;52.554;7.966;2024-01-11T07:47:35;46.27;;;16.83;;
15946;SDS011;8072;52.554;7.966;2024-01-11T07:50:03;40.30;;;16.43;;
15946;SDS011;8072;52.554;7.966;2024-01-11T07:52:35;42.30;;;16.70;;
15946;SDS011;8072;52.554;7.966;2024-01-11T07:55:02;50.87;;;17.23;;
15946;SDS011;8072;52.554;7.966;2024-01-11T07:57:35;44.30;;;16.80;;
15946;SDS011;8072;52.554;7.966;2024-01-11T08:00:02;41.33;;;16.37;;
15946;SDS011;8072;52.554;7.966;2024-01-11T08:02:33;47.60;;;17.57;;
15946;SDS011;8072;52.554;7.966;2024-01-11T08:04:58;54.43;;;19.50;;
15946;SDS011;8072;52.554;7.966;2024-01-11T08:07:27;53.73;;;19.83;;
15946;SDS011;8072;52.554;7.966;2024-01-11T08:09:53;63.83;;;21.00;;
15946;SDS011;8072;52.554;7.966;2024-01-11T08:12:20;60.60;;;21.00;;
15946;SDS011;8072;52.554;7.966;2024-01-11T08:14:45;49.97;;;17.13;;
15946;SDS011;8072;52.554;7.966;2024-01-11T08:17:12;49.97;;;19.03;;
15946;SDS011;8072;52.554;7.966;2024-01-11T08:19:39;55.90;;;21.00;;
15946;SDS011;8072;52.554;7.966;2024-01-11T08:22:05;65.90;;;21.53;;
15946;SDS011;8072;52.554;7.966;2024-01-11T08:24:31;57.23;;;19.97;;
15946;SDS011;8072;52.554;7.966;2024-01-11T08:26:59;55.53;;;19.40;;
15946;SDS011;8072;52.554;7.966;2024-01-11T08:29:25;52.70;;;19.10;;
15946;SDS011;8072;52.554;7.966;2024-01-11T08:31:51;57.57;;;20.27;;
15946;SDS011;8072;52.554;7.966;2024-01-11T08:34:17;49.77;;;19.37;;
15946;SDS011;8072;52.554;7.966;2024-01-11T08:36:42;50.87;;;18.70;;
15946;SDS011;8072;52.554;7.966;2024-01-11T08:39:08;61.40;;;20.40;;
15946;SDS011;8072;52.554;7.966;2024-01-11T08:41:36;52.77;;;18.47;;
15946;SDS011;8072;52.554;7.966;2024-01-11T08:44:06;54.50;;;18.47;;
15946;SDS011;8072;52.554;7.966;2024-01-11T08:46:32;55.90;;;18.63;;
15946;SDS011;8072;52.554;7.966;2024-01-11T08:48:59;60.70;;;18.80;;
15946;SDS011;8072;52.554;7.966;2024-01-11T08:51:26;57.53;;;17.67;;
15946;SDS011;8072;52.554;7.966;2024-01-11T08:53:52;56.33;;;19.20;;
15946;SDS011;8072;52.554;7.966;2024-01-11T08:56:18;45.73;;;18.20;;
15946;SDS011;8072;52.554;7.966;2024-01-11T08:58:44;47.57;;;18.17;;
15946;SDS011;8072;52.554;7.966;2024-01-11T09:01:10;55.47;;;18.17;;
15946;SDS011;8072;52.554;7.966;2024-01-11T09:03:36;52.40;;;17.93;;
15946;SDS011;8072;52.554;7.966;2024-01-11T09:06:02;56.07;;;18.13;;
15946;SDS011;8072;52.554;7.966;2024-01-11T09:08:29;59.77;;;17.53;;
15946;SDS011;8072;52.554;7.966;2024-01-11T09:10:57;61.23;;;17.83;;
15946;SDS011;8072;52.554;7.966;2024-01-11T09:13:24;50.73;;;18.20;;
15946;SDS011;8072;52.554;7.966;2024-01-11T09:15:54;53.97;;;18.17;;
15946;SDS011;8072;52.554;7.966;2024-01-11T09:18:20;55.67;;;17.67;;
15946;SDS011;8072;52.554;7.966;2024-01-11T09:20:46;53.30;;;15.93;;
15946;SDS011;8072;52.554;7.966;2024-01-11T09:23:13;51.37;;;16.90;;
15946;SDS011;8072;52.554;7.966;2024-01-11T09:25:39;51.37;;;16.43;;
15946;SDS011;8072;52.554;7.966;2024-01-11T09:28:05;58.93;;;18.63;;
15946;SDS011;8072;52.554;7.966;2024-01-11T09:30:30;59.47;;;17.57;;
15946;SDS011;8072;52.554;7.966;2024-01-11T09:32:56;55.83;;;17.47;;
15946;SDS011;8072;52.554;7.966;2024-01-11T09:35:22;53.00;;;18.50;;
15946;SDS011;8072;52.554;7.966;2024-01-11T09:37:49;60.57;;;18.23;;
15946;SDS011;8072;52.554;7.966;2024-01-11T09:40:15;58.10;;;18.10;;
15946;SDS011;8072;52.554;7.966;2024-01-11T09:42:42;53.57;;;17.23;;
15946;SDS011;8072;52.554;7.966;2024-01-11T09:45:09;49.57;;;16.07;;
15946;SDS011;8072;52.554;7.966;2024-01-11T09:47:37;48.17;;;15.60;;
15946;SDS011;8072;52.554;7.966;2024-01-11T09:50:05;48.77;;;16.80;;
15946;SDS011;8072;52.554;7.966;2024-01-11T09:52:32;45.97;;;17.27;;
15946;SDS011;8072;52.554;7.966;2024-01-11T09:54:58;48.97;;;16.97;;
15946;SDS011;8072;52.554;7.966;2024-01-11T09:57:29;58.37;;;19.93;;
15946;SDS011;8072;52.554;7.966;2024-01-11T09:59:56;59.63;;;18.70;;
15946;SDS011;8072;52.554;7.966;2024-01-11T10:02:26;52.20;;;17.90;;
15946;SDS011;8072;52.554;7.966;2024-01-11T10:04:52;59.33;;;19.43;;
15946;SDS011;8072;52.554;7.966;2024-01-11T10:07:18;72.03;;;20.57;;
15946;SDS011;8072;52.554;7.966;2024-01-11T10:09:46;56.03;;;18.47;;
15946;SDS011;8072;52.554;7.966;2024-01-11T10:12:12;56.43;;;19.30;;
15946;SDS011;8072;52.554;7.966;2024-01-11T10:14:39;59.77;;;19.33;;
15946;SDS011;8072;52.554;7.966;2024-01-11T10:17:05;48.67;;;18.53;;
15946;SDS011;8072;52.554;7.966;2024-01-11T10:19:31;61.80;;;19.30;;
15946;SDS011;8072;52.554;7.966;2024-01-11T10:21:57;57.77;;;20.03;;
15946;SDS011;8072;52.554;7.966;2024-01-11T10:24:26;48.73;;;18.90;;
15946;SDS011;8072;52.554;7.966;2024-01-11T10:26:56;49.27;;;18.07;;
15946;SDS011;8072;52.554;7.966;2024-01-11T10:29:32;60.53;;;18.60;;
15946;SDS011;8072;52.554;7.966;2024-01-11T10:32:01;46.47;;;16.60;;
15946;SDS011;8072;52.554;7.966;2024-01-11T10:34:28;44.43;;;16.17;;
15946;SDS011;8072;52.554;7.966;2024-01-11T10:36:54;46.43;;;16.97;;
15946;SDS011;8072;52.554;7.966;2024-01-11T10:39:23;42.73;;;14.90;;
15946;SDS011;8072;52.554;7.966;2024-01-11T10:41:51;41.00;;;14.60;;
15946;SDS011;8072;52.554;7.966;2024-01-11T10:44:22;49.37;;;14.87;;
15946;SDS011;8072;52.554;7.966;2024-01-11T10:46:50;44.23;;;15.00;;
15946;SDS011;8072;52.554;7.966;2024-01-11T10:49:18;44.07;;;14.17;;
15946;SDS011;8072;52.554;7.966;2024-01-11T10:51:45;48.23;;;16.63;;
15946;SDS011;8072;52.554;7.966;2024-01-11T10:54:18;45.93;;;16.07;;
15946;SDS011;8072;52.554;7.966;2024-01-11T10:56:45;44.50;;;16.23;;
15946;SDS011;8072;52.554;7.966;2024-01-11T10:59:12;43.70;;;14.43;;
15946;SDS011;8072;52.554;7.966;2024-01-11T11:01:41;35.77;;;14.43;;
15946;SDS011;8072;52.554;7.966;2024-01-11T11:04:07;40.27;;;14.40;;
15946;SDS011;8072;52.554;7.966;2024-01-11T11:06:34;46.10;;;15.47;;
15946;SDS011;8072;52.554;7.966;2024-01-11T11:09:01;44.57;;;15.50;;
15946;SDS011;8072;52.554;7.966;2024-01-11T11:11:30;38.07;;;13.73;;
15946;SDS011;8072;52.554;7.966;2024-01-11T11:13:58;33.37;;;12.00;;
15946;SDS011;8072;52.554;7.966;2024-01-11T11:16:26;40.47;;;13.43;;
15946;SDS011;8072;52.554;7.966;2024-01-11T11:18:53;34.67;;;13.47;;
15946;SDS011;8072;52.554;7.966;2024-01-11T11:24:42;38.53;;;12.67;;
15946;SDS011;8072;52.554;7.966;2024-01-11T11:27:08;33.83;;;12.53;;
15946;SDS011;8072;52.554;7.966;2024-01-11T11:29:38;35.53;;;12.77;;
15946;SDS011;8072;52.554;7.966;2024-01-11T11:32:03;39.13;;;14.03;;
15946;SDS011;8072;52.554;7.966;2024-01-11T11:34:43;40.83;;;15.20;;
15946;SDS011;8072;52.554;7.966;2024-01-11T11:37:12;36.00;;;13.33;;
15946;SDS011;8072;52.554;7.966;2024-01-11T11:39:38;38.23;;;13.87;;
15946;SDS011;8072;52.554;7.966;2024-01-11T11:42:06;37.27;;;12.60;;
15946;SDS011;8072;52.554;7.966;2024-01-11T11:44:33;33.77;;;12.83;;
15946;SDS011;8072;52.554;7.966;2024-01-11T11:52:39;28.47;;;12.33;;
15946;SDS011;8072;52.554;7.966;2024-01-11T11:55:09;35.53;;;12.30;;
15946;SDS011;8072;52.554;7.966;2024-01-11T11:57:35;29.67;;;13.17;;
15946;SDS011;8072;52.554;7.966;2024-01-11T12:00:01;32.57;;;12.77;;
15946;SDS011;8072;52.554;7.966;2024-01-11T12:02:31;31.27;;;12.60;;
15946;SDS011;8072;52.554;7.966;2024-01-11T12:04:57;35.73;;;13.10;;
15946;SDS011;8072;52.554;7.966;2024-01-11T12:07:23;33.80;;;13.67;;
15946;SDS011;8072;52.554;7.966;2024-01-11T12:09:50;27.47;;;11.87;;
15946;SDS011;8072;52.554;7.966;2024-01-11T12:12:17;26.50;;;11.97;;
15946;SDS011;8072;52.554;7.966;2024-01-11T12:14:49;29.63;;;11.47;;
15946;SDS011;8072;52.554;7.966;2024-01-11T12:17:15;34.30;;;11.83;;
15946;SDS011;8072;52.554;7.966;2024-01-11T12:19:41;29.07;;;11.10;;
15946;SDS011;8072;52.554;7.966;2024-01-11T12:22:07;25.97;;;11.40;;
15946;SDS011;8072;52.554;7.966;2024-01-11T12:24:33;31.03;;;11.17;;
15946;SDS011;8072;52.554;7.966;2024-01-11T12:26:59;29.30;;;11.10;;
15946;SDS011;8072;52.554;7.966;2024-01-11T12:29:28;23.20;;;11.23;;
15946;SDS011;8072;52.554;7.966;2024-01-11T12:31:55;30.97;;;11.73;;
15946;SDS011;8072;52.554;7.966;2024-01-11T12:34:25;30.60;;;12.17;;
15946;SDS011;8072;52.554;7.966;2024-01-11T12:36:53;25.10;;;10.90;;
15946;SDS011;8072;52.554;7.966;2024-01-11T12:39:20;24.53;;;10.50;;
15946;SDS011;8072;52.554;7.966;2024-01-11T12:41:48;28.20;;;11.37;;
15946;SDS011;8072;52.554;7.966;2024-01-11T12:44:17;23.77;;;10.43;;
15946;SDS011;8072;52.554;7.966;2024-01-11T12:46:48;22.80;;;10.00;;
15946;SDS011;8072;52.554;7.966;2024-01-11T12:49:14;21.33;;;8.87;;
15946;SDS011;8072;52.554;7.966;2024-01-11T12:51:41;22.37;;;10.23;;
15946;SDS011;8072;52.554;7.966;2024-01-11T12:54:11;22.70;;;9.97;;
15946;SDS011;8072;52.554;7.966;2024-01-11T12:56:42;19.30;;;9.50;;
15946;SDS011;8072;52.554;7.966;2024-01-11T12:59:09;20.93;;;8.63;;
15946;SDS011;8072;52.554;7.966;2024-01-11T13:01:36;23.20;;;9.40;;
15946;SDS011;8072;52.554;7.966;2024-01-11T13:04:07;23.70;;;8.90;;
15946;SDS011;8072;52.554;7.966;2024-01-11T13:06:34;18.47;;;8.30;;
15946;SDS011;8072;52.554;7.966;2024-01-11T13:09:01;19.10;;;8.27;;
15946;SDS011;8072;52.554;7.966;2024-01-11T13:11:27;22.50;;;10.10;;
15946;SDS011;8072;52.554;7.966;2024-01-11T13:13:53;20.47;;;9.13;;
15946;SDS011;8072;52.554;7.966;2024-01-11T13:16:19;19.77;;;9.47;;
15946;SDS011;8072;52.554;7.966;2024-01-11T13:18:46;19.93;;;8.83;;
15946;SDS011;8072;52.554;7.966;2024-01-11T13:21:12;22.30;;;10.00;;
15946;SDS011;8072;52.554;7.966;2024-01-11T13:23:38;29.13;;;12.73;;
15946;SDS011;8072;52.554;7.966;2024-01-11T13:26:05;26.60;;;12.00;;
15946;SDS011;8072;52.554;7.966;2024-01-11T13:28:31;30.37;;;12.47;;
15946;SDS011;8072;52.554;7.966;2024-01-11T13:30:58;28.43;;;13.20;;
15946;SDS011;8072;52.554;7.966;2024-01-11T13:33:24;27.37;;;13.53;;
15946;SDS011;8072;52.554;7.966;2024-01-11T13:35:50;30.43;;;13.30;;
15946;SDS011;8072;52.554;7.966;2024-01-11T13:38:16;29.43;;;12.67;;
15946;SDS011;8072;52.554;7.966;2024-01-11T13:40:42;27.53;;;12.07;;
15946;SDS011;8072;52.554;7.966;2024-01-11T13:43:08;28.57;;;12.23;;
15946;SDS011;8072;52.554;7.966;2024-01-11T13:45:35;27.47;;;11.93;;
15946;SDS011;8072;52.554;7.966;2024-01-11T13:48:01;31.40;;;12.10;;
15946;SDS011;8072;52.554;7.966;2024-01-11T13:50:28;30.90;;;12.43;;
15946;SDS011;8072;52.554;7.966;2024-01-11T13:52:54;29.93;;;12.30;;
15946;SDS011;8072;52.554;7.966;2024-01-11T13:55:21;30.80;;;11.63;;
15946;SDS011;8072;52.554;7.966;2024-01-11T13:57:50;30.93;;;12.13;;
15946;SDS011;8072;52.554;7.966;2024-01-11T14:00:16;27.00;;;11.23;;
15946;SDS011;8072;52.554;7.966;2024-01-11T14:02:44;27.90;;;12.60;;
15946;SDS011;8072;52.554;7.966;2024-01-11T14:05:10;28.93;;;12.03;;
15946;SDS011;8072;52.554;7.966;2024-01-11T14:07:39;23.47;;;12.13;;
15946;SDS011;8072;52.554;7.966;2024-01-11T14:10:05;26.27;;;11.87;;
15946;SDS011;8072;52.554;7.966;2024-01-11T14:12:33;33.03;;;13.43;;
15946;SDS011;8072;52.554;7.966;2024-01-11T14:15:02;29.30;;;12.80;;
15946;SDS011;8072;52.554;7.966;2024-01-11T14:17:30;30.00;;;12.90;;
15946;SDS011;8072;52.554;7.966;2024-01-11T14:19:59;29.30;;;13.10;;
15946;SDS011;8072;52.554;7.966;2024-01-11T14:22:26;29.47;;;13.63;;
15946;SDS011;8072;52.554;7.966;2024-01-11T14:24:52;31.87;;;13.60;;
15946;SDS011;8072;52.554;7.966;2024-01-11T14:27:19;31.77;;;13.43;;
15946;SDS011;8072;52.554;7.966;2024-01-11T14:29:45;33.67;;;13.80;;
15946;SDS011;8072;52.554;7.966;2024-01-11T14:32:11;32.27;;;13.63;;
15946;SDS011;8072;52.554;7.966;2024-01-11T14:34:40;34.27;;;13.73;;
15946;SDS011;8072;52.554;7.966;2024-01-11T14:37:07;29.53;;;13.80;;
15946;SDS011;8072;52.554;7.966;2024-01-11T14:39:33;30.73;;;13.37;;
15946;SDS011;8072;52.554;7.966;2024-01-11T14:41:58;28.13;;;13.90;;
15946;SDS011;8072;52.554;7.966;2024-01-11T14:44:24;26.50;;;13.00;;